sensor_id;sensor_type;location;lat;lon;timestamp;P1;durP1;ratioP1;P2;durP2;ratioP2
21272;SDS011;36726;52.328;10.552;2022-11-15T00:00:40;11.43;;;7.20;;
21272;SDS011;36726;52.328;10.552;2022-11-15T00:03:26;12.85;;;6.57;;
21272;SDS011;36726;52.328;10.552;2022-11-15T00:06:13;11.15;;;6.20;;
21272;SDS011;36726;52.328;10.552;2022-11-15T00:08:58;10.65;;;6.85;;
21272;SDS011;36726;52.328;10.552;2022-11-15T00:11:44;12.90;;;7.00;;
21272;SDS011;36726;52.328;10.552;2022-11-15T00:14:29;12.45;;;6.88;;
21272;SDS011;36726;52.328;10.552;2022-11-15T00:17:14;11.68;;;7.30;;
21272;SDS011;36726;52.328;10.552;2022-11-15T00:20:00;11.32;;;7.10;;
21272;SDS011;36726;52.328;10.552;2022-11-15T00:22:45;12.05;;;7.93;;
21272;SDS011;36726;52.328;10.552;2022-11-15T00:25:31;13.32;;;8.27;;
21272;SDS011;36726;52.328;10.552;2022-11-15T00:28:17;11.80;;;7.22;;
21272;SDS011;36726;52.328;10.552;2022-11-15T00:31:03;14.80;;;7.45;;
21272;SDS011;36726;52.328;10.552;2022-11-15T00:33:50;10.70;;;7.03;;
21272;SDS011;36726;52.328;10.552;2022-11-15T00:36:36;9.40;;;6.50;;
21272;SDS011;36726;52.328;10.552;2022-11-15T00:39:21;12.23;;;7.28;;
21272;SDS011;36726;52.328;10.552;2022-11-15T00:42:06;11.07;;;6.63;;
21272;SDS011;36726;52.328;10.552;2022-11-15T00:44:52;10.70;;;6.93;;
21272;SDS011;36726;52.328;10.552;2022-11-15T00:47:37;12.15;;;7.53;;
21272;SDS011;36726;52.328;10.552;2022-11-15T00:50:22;12.63;;;6.90;;
21272;SDS011;36726;52.328;10.552;2022-11-15T00:53:08;12.77;;;7.35;;
21272;SDS011;36726;52.328;10.552;2022-11-15T00:55:53;12.48;;;7.15;;
21272;SDS011;36726;52.328;10.552;2022-11-15T00:58:38;11.43;;;7.53;;
21272;SDS011;36726;52.328;10.552;2022-11-15T01:01:24;10.80;;;7.25;;
21272;SDS011;36726;52.328;10.552;2022-11-15T01:04:09;13.23;;;7.70;;
21272;SDS011;36726;52.328;10.552;2022-11-15T01:06:55;13.10;;;7.80;;
21272;SDS011;36726;52.328;10.552;2022-11-15T01:09:40;15.98;;;7.78;;
21272;SDS011;36726;52.328;10.552;2022-11-15T01:12:25;15.25;;;7.95;;
21272;SDS011;36726;52.328;10.552;2022-11-15T01:15:11;14.25;;;7.88;;
21272;SDS011;36726;52.328;10.552;2022-11-15T01:17:56;12.32;;;7.80;;
21272;SDS011;36726;52.328;10.552;2022-11-15T01:20:41;12.50;;;7.85;;
21272;SDS011;36726;52.328;10.552;2022-11-15T01:23:27;11.00;;;7.22;;
21272;SDS011;36726;52.328;10.552;2022-11-15T01:26:14;15.38;;;7.88;;
21272;SDS011;36726;52.328;10.552;2022-11-15T01:29:00;12.13;;;7.10;;
21272;SDS011;36726;52.328;10.552;2022-11-15T01:31:45;13.20;;;7.20;;
21272;SDS011;36726;52.328;10.552;2022-11-15T01:34:30;12.88;;;7.50;;
21272;SDS011;36726;52.328;10.552;2022-11-15T01:37:15;13.65;;;7.57;;
21272;SDS011;36726;52.328;10.552;2022-11-15T01:40:00;12.73;;;7.38;;
21272;SDS011;36726;52.328;10.552;2022-11-15T01:42:45;11.77;;;7.80;;
21272;SDS011;36726;52.328;10.552;2022-11-15T01:45:30;12.80;;;6.47;;
21272;SDS011;36726;52.328;10.552;2022-11-15T01:48:15;11.63;;;6.93;;
21272;SDS011;36726;52.328;10.552;2022-11-15T01:51:01;12.50;;;7.03;;
21272;SDS011;36726;52.328;10.552;2022-11-15T01:53:52;11.73;;;7.47;;
21272;SDS011;36726;52.328;10.552;2022-11-15T01:56:46;11.80;;;6.75;;
21272;SDS011;36726;52.328;10.552;2022-11-15T01:59:36;12.32;;;6.65;;
21272;SDS011;36726;52.328;10.552;2022-11-15T02:02:25;14.82;;;7.57;;
21272;SDS011;36726;52.328;10.552;2022-11-15T02:05:10;10.52;;;6.20;;
21272;SDS011;36726;52.328;10.552;2022-11-15T02:07:55;9.90;;;6.68;;
21272;SDS011;36726;52.328;10.552;2022-11-15T02:10:41;11.63;;;7.03;;
21272;SDS011;36726;52.328;10.552;2022-11-15T02:13:26;11.95;;;7.25;;
21272;SDS011;36726;52.328;10.552;2022-11-15T02:16:26;10.23;;;6.85;;
21272;SDS011;36726;52.328;10.552;2022-11-15T02:29:36;11.32;;;7.18;;
21272;SDS011;36726;52.328;10.552;2022-11-15T02:38:53;12.10;;;7.07;;
21272;SDS011;36726;52.328;10.552;2022-11-15T02:41:52;12.30;;;7.20;;
21272;SDS011;36726;52.328;10.552;2022-11-15T02:44:43;18.05;;;7.22;;
21272;SDS011;36726;52.328;10.552;2022-11-15T02:47:31;11.13;;;6.60;;
21272;SDS011;36726;52.328;10.552;2022-11-15T02:50:24;13.60;;;7.30;;
21272;SDS011;36726;52.328;10.552;2022-11-15T02:53:12;9.65;;;6.82;;
21272;SDS011;36726;52.328;10.552;2022-11-15T02:55:59;13.70;;;7.18;;
21272;SDS011;36726;52.328;10.552;2022-11-15T02:59:00;12.57;;;7.63;;
21272;SDS011;36726;52.328;10.552;2022-11-15T03:04:57;13.57;;;7.00;;
21272;SDS011;36726;52.328;10.552;2022-11-15T03:16:40;11.75;;;6.80;;
21272;SDS011;36726;52.328;10.552;2022-11-15T03:19:34;10.30;;;6.68;;
21272;SDS011;36726;52.328;10.552;2022-11-15T03:22:26;10.85;;;6.85;;
21272;SDS011;36726;52.328;10.552;2022-11-15T03:25:16;10.77;;;6.53;;
21272;SDS011;36726;52.328;10.552;2022-11-15T03:28:06;13.48;;;7.18;;
21272;SDS011;36726;52.328;10.552;2022-11-15T03:30:56;11.45;;;7.07;;
21272;SDS011;36726;52.328;10.552;2022-11-15T03:33:44;13.18;;;6.72;;
21272;SDS011;36726;52.328;10.552;2022-11-15T03:36:30;12.18;;;6.78;;
21272;SDS011;36726;52.328;10.552;2022-11-15T03:39:18;9.13;;;6.72;;
21272;SDS011;36726;52.328;10.552;2022-11-15T03:45:19;10.30;;;6.72;;
21272;SDS011;36726;52.328;10.552;2022-11-15T03:48:18;11.75;;;6.60;;
21272;SDS011;36726;52.328;10.552;2022-11-15T03:51:08;11.68;;;6.50;;
21272;SDS011;36726;52.328;10.552;2022-11-15T03:53:54;10.98;;;6.57;;
21272;SDS011;36726;52.328;10.552;2022-11-15T03:56:39;11.32;;;7.20;;
21272;SDS011;36726;52.328;10.552;2022-11-15T03:59:24;11.55;;;7.15;;
21272;SDS011;36726;52.328;10.552;2022-11-15T04:02:09;10.52;;;6.72;;
21272;SDS011;36726;52.328;10.552;2022-11-15T04:04:55;9.73;;;6.85;;
21272;SDS011;36726;52.328;10.552;2022-11-15T04:07:40;12.00;;;7.57;;
21272;SDS011;36726;52.328;10.552;2022-11-15T04:10:25;16.08;;;8.32;;
21272;SDS011;36726;52.328;10.552;2022-11-15T04:13:10;15.85;;;7.20;;
21272;SDS011;36726;52.328;10.552;2022-11-15T04:15:55;12.82;;;6.97;;
21272;SDS011;36726;52.328;10.552;2022-11-15T04:18:40;11.85;;;7.45;;
21272;SDS011;36726;52.328;10.552;2022-11-15T04:21:26;12.80;;;7.50;;
21272;SDS011;36726;52.328;10.552;2022-11-15T04:24:29;11.35;;;6.75;;
21272;SDS011;36726;52.328;10.552;2022-11-15T04:27:15;14.93;;;7.30;;
21272;SDS011;36726;52.328;10.552;2022-11-15T04:30:00;11.13;;;6.60;;
21272;SDS011;36726;52.328;10.552;2022-11-15T04:32:45;11.18;;;6.90;;
21272;SDS011;36726;52.328;10.552;2022-11-15T04:35:30;10.57;;;7.00;;
21272;SDS011;36726;52.328;10.552;2022-11-15T04:38:15;15.65;;;7.50;;
21272;SDS011;36726;52.328;10.552;2022-11-15T04:41:01;10.50;;;7.45;;
21272;SDS011;36726;52.328;10.552;2022-11-15T04:43:47;13.95;;;7.32;;
21272;SDS011;36726;52.328;10.552;2022-11-15T04:46:32;11.10;;;7.40;;
21272;SDS011;36726;52.328;10.552;2022-11-15T04:49:17;15.27;;;7.28;;
21272;SDS011;36726;52.328;10.552;2022-11-15T04:52:03;12.40;;;7.07;;
21272;SDS011;36726;52.328;10.552;2022-11-15T04:54:48;11.15;;;6.80;;
21272;SDS011;36726;52.328;10.552;2022-11-15T04:57:33;10.38;;;7.28;;
21272;SDS011;36726;52.328;10.552;2022-11-15T05:00:18;12.45;;;6.63;;
21272;SDS011;36726;52.328;10.552;2022-11-15T05:03:04;10.73;;;6.97;;
21272;SDS011;36726;52.328;10.552;2022-11-15T05:06:07;12.25;;;7.32;;
21272;SDS011;36726;52.328;10.552;2022-11-15T05:08:53;11.32;;;7.80;;
21272;SDS011;36726;52.328;10.552;2022-11-15T05:11:38;13.73;;;7.05;;
21272;SDS011;36726;52.328;10.552;2022-11-15T05:14:23;15.32;;;8.00;;
21272;SDS011;36726;52.328;10.552;2022-11-15T05:17:09;12.63;;;7.78;;
21272;SDS011;36726;52.328;10.552;2022-11-15T05:19:54;14.70;;;7.35;;
21272;SDS011;36726;52.328;10.552;2022-11-15T05:22:39;12.85;;;7.50;;
21272;SDS011;36726;52.328;10.552;2022-11-15T05:25:25;11.43;;;6.75;;
21272;SDS011;36726;52.328;10.552;2022-11-15T05:28:11;14.15;;;7.22;;
21272;SDS011;36726;52.328;10.552;2022-11-15T05:31:06;13.45;;;7.03;;
21272;SDS011;36726;52.328;10.552;2022-11-15T05:33:53;10.88;;;6.70;;
21272;SDS011;36726;52.328;10.552;2022-11-15T05:36:42;13.27;;;7.28;;
21272;SDS011;36726;52.328;10.552;2022-11-15T05:39:29;12.98;;;7.40;;
21272;SDS011;36726;52.328;10.552;2022-11-15T05:42:15;11.85;;;7.30;;
21272;SDS011;36726;52.328;10.552;2022-11-15T05:45:01;14.63;;;7.07;;
21272;SDS011;36726;52.328;10.552;2022-11-15T05:47:50;11.90;;;7.68;;
21272;SDS011;36726;52.328;10.552;2022-11-15T05:50:38;8.40;;;6.38;;
21272;SDS011;36726;52.328;10.552;2022-11-15T05:53:27;10.65;;;6.85;;
21272;SDS011;36726;52.328;10.552;2022-11-15T05:56:13;11.93;;;7.03;;
21272;SDS011;36726;52.328;10.552;2022-11-15T05:58:59;11.20;;;6.80;;
21272;SDS011;36726;52.328;10.552;2022-11-15T06:01:45;9.63;;;6.78;;
21272;SDS011;36726;52.328;10.552;2022-11-15T06:04:31;10.73;;;7.32;;
21272;SDS011;36726;52.328;10.552;2022-11-15T06:07:16;12.38;;;7.38;;
21272;SDS011;36726;52.328;10.552;2022-11-15T06:10:01;13.43;;;7.32;;
21272;SDS011;36726;52.328;10.552;2022-11-15T06:12:46;11.77;;;7.30;;
21272;SDS011;36726;52.328;10.552;2022-11-15T06:15:32;11.43;;;6.88;;
21272;SDS011;36726;52.328;10.552;2022-11-15T06:18:18;9.75;;;6.63;;
21272;SDS011;36726;52.328;10.552;2022-11-15T06:21:04;10.95;;;6.53;;
21272;SDS011;36726;52.328;10.552;2022-11-15T06:23:49;12.10;;;6.95;;
21272;SDS011;36726;52.328;10.552;2022-11-15T06:26:35;13.60;;;6.82;;
21272;SDS011;36726;52.328;10.552;2022-11-15T06:29:20;10.13;;;6.10;;
21272;SDS011;36726;52.328;10.552;2022-11-15T06:32:05;10.23;;;6.18;;
21272;SDS011;36726;52.328;10.552;2022-11-15T06:34:50;13.15;;;6.07;;
21272;SDS011;36726;52.328;10.552;2022-11-15T06:37:35;9.35;;;5.60;;
21272;SDS011;36726;52.328;10.552;2022-11-15T06:40:21;7.95;;;5.57;;
21272;SDS011;36726;52.328;10.552;2022-11-15T06:43:06;10.95;;;6.20;;
21272;SDS011;36726;52.328;10.552;2022-11-15T06:45:52;7.65;;;5.28;;
21272;SDS011;36726;52.328;10.552;2022-11-15T06:48:37;11.40;;;5.82;;
21272;SDS011;36726;52.328;10.552;2022-11-15T06:51:23;9.27;;;6.50;;
21272;SDS011;36726;52.328;10.552;2022-11-15T06:54:08;13.32;;;6.55;;
21272;SDS011;36726;52.328;10.552;2022-11-15T06:56:54;9.93;;;5.88;;
21272;SDS011;36726;52.328;10.552;2022-11-15T06:59:39;9.55;;;6.40;;
21272;SDS011;36726;52.328;10.552;2022-11-15T07:02:24;10.45;;;6.38;;
21272;SDS011;36726;52.328;10.552;2022-11-15T07:05:10;10.10;;;6.97;;
21272;SDS011;36726;52.328;10.552;2022-11-15T07:07:56;10.80;;;6.60;;
21272;SDS011;36726;52.328;10.552;2022-11-15T07:10:42;12.45;;;6.35;;
21272;SDS011;36726;52.328;10.552;2022-11-15T07:13:28;9.68;;;6.22;;
21272;SDS011;36726;52.328;10.552;2022-11-15T07:16:15;9.18;;;5.80;;
21272;SDS011;36726;52.328;10.552;2022-11-15T07:19:00;11.88;;;5.75;;
21272;SDS011;36726;52.328;10.552;2022-11-15T07:21:45;10.88;;;6.65;;
21272;SDS011;36726;52.328;10.552;2022-11-15T07:24:31;11.95;;;6.43;;
21272;SDS011;36726;52.328;10.552;2022-11-15T07:27:16;9.38;;;6.00;;
21272;SDS011;36726;52.328;10.552;2022-11-15T07:30:02;10.05;;;6.28;;
21272;SDS011;36726;52.328;10.552;2022-11-15T07:32:52;10.13;;;5.45;;
21272;SDS011;36726;52.328;10.552;2022-11-15T07:35:43;8.75;;;5.63;;
21272;SDS011;36726;52.328;10.552;2022-11-15T07:38:31;9.05;;;5.80;;
21272;SDS011;36726;52.328;10.552;2022-11-15T07:41:24;9.70;;;5.75;;
21272;SDS011;36726;52.328;10.552;2022-11-15T07:44:09;11.88;;;6.72;;
21272;SDS011;36726;52.328;10.552;2022-11-15T07:46:55;12.77;;;6.97;;
21272;SDS011;36726;52.328;10.552;2022-11-15T07:49:40;9.23;;;6.20;;
21272;SDS011;36726;52.328;10.552;2022-11-15T07:52:25;11.77;;;6.82;;
21272;SDS011;36726;52.328;10.552;2022-11-15T07:55:11;10.55;;;6.30;;
21272;SDS011;36726;52.328;10.552;2022-11-15T07:58:03;10.38;;;6.10;;
21272;SDS011;36726;52.328;10.552;2022-11-15T08:00:49;8.65;;;6.28;;
21272;SDS011;36726;52.328;10.552;2022-11-15T08:03:34;11.75;;;6.22;;
21272;SDS011;36726;52.328;10.552;2022-11-15T08:06:20;8.98;;;5.80;;
21272;SDS011;36726;52.328;10.552;2022-11-15T08:09:05;9.50;;;5.63;;
21272;SDS011;36726;52.328;10.552;2022-11-15T08:11:50;8.13;;;6.03;;
21272;SDS011;36726;52.328;10.552;2022-11-15T08:14:35;9.40;;;5.80;;
21272;SDS011;36726;52.328;10.552;2022-11-15T08:17:21;10.60;;;4.90;;
21272;SDS011;36726;52.328;10.552;2022-11-15T08:20:07;7.88;;;4.82;;
21272;SDS011;36726;52.328;10.552;2022-11-15T08:22:52;7.88;;;4.50;;
21272;SDS011;36726;52.328;10.552;2022-11-15T08:25:38;7.13;;;4.50;;
21272;SDS011;36726;52.328;10.552;2022-11-15T08:28:24;11.75;;;4.45;;
21272;SDS011;36726;52.328;10.552;2022-11-15T08:31:13;7.68;;;4.90;;
21272;SDS011;36726;52.328;10.552;2022-11-15T08:34:00;6.00;;;3.70;;
21272;SDS011;36726;52.328;10.552;2022-11-15T08:36:45;6.28;;;4.15;;
21272;SDS011;36726;52.328;10.552;2022-11-15T08:39:31;10.02;;;4.25;;
21272;SDS011;36726;52.328;10.552;2022-11-15T08:42:16;5.30;;;4.15;;
21272;SDS011;36726;52.328;10.552;2022-11-15T08:45:04;8.98;;;4.88;;
21272;SDS011;36726;52.328;10.552;2022-11-15T08:47:50;7.10;;;3.95;;
21272;SDS011;36726;52.328;10.552;2022-11-15T08:50:38;6.80;;;4.28;;
21272;SDS011;36726;52.328;10.552;2022-11-15T08:53:24;7.20;;;4.30;;
21272;SDS011;36726;52.328;10.552;2022-11-15T08:56:13;8.18;;;5.18;;
21272;SDS011;36726;52.328;10.552;2022-11-15T08:58:59;6.55;;;4.72;;
21272;SDS011;36726;52.328;10.552;2022-11-15T09:01:44;9.13;;;5.30;;
21272;SDS011;36726;52.328;10.552;2022-11-15T09:04:29;8.40;;;4.97;;
21272;SDS011;36726;52.328;10.552;2022-11-15T09:07:15;7.18;;;5.18;;
21272;SDS011;36726;52.328;10.552;2022-11-15T09:10:00;13.63;;;6.93;;
21272;SDS011;36726;52.328;10.552;2022-11-15T09:12:46;10.32;;;6.50;;
21272;SDS011;36726;52.328;10.552;2022-11-15T09:15:33;10.00;;;7.03;;
21272;SDS011;36726;52.328;10.552;2022-11-15T09:18:18;10.63;;;6.78;;
21272;SDS011;36726;52.328;10.552;2022-11-15T09:21:07;8.73;;;6.32;;
21272;SDS011;36726;52.328;10.552;2022-11-15T09:23:52;12.48;;;6.20;;
21272;SDS011;36726;52.328;10.552;2022-11-15T09:26:37;8.23;;;5.40;;
21272;SDS011;36726;52.328;10.552;2022-11-15T09:29:23;8.20;;;5.88;;
21272;SDS011;36726;52.328;10.552;2022-11-15T09:32:08;10.10;;;5.93;;
21272;SDS011;36726;52.328;10.552;2022-11-15T09:34:54;6.95;;;4.47;;
21272;SDS011;36726;52.328;10.552;2022-11-15T09:37:40;7.60;;;4.78;;
21272;SDS011;36726;52.328;10.552;2022-11-15T09:40:25;4.82;;;3.97;;
21272;SDS011;36726;52.328;10.552;2022-11-15T09:43:24;7.38;;;4.20;;
21272;SDS011;36726;52.328;10.552;2022-11-15T09:49:08;7.35;;;4.53;;
21272;SDS011;36726;52.328;10.552;2022-11-15T09:51:53;6.97;;;4.00;;
21272;SDS011;36726;52.328;10.552;2022-11-15T09:57:38;6.38;;;3.95;;
21272;SDS011;36726;52.328;10.552;2022-11-15T10:03:14;6.38;;;4.70;;
21272;SDS011;36726;52.328;10.552;2022-11-15T10:05:46;6.20;;;4.10;;
21272;SDS011;36726;52.328;10.552;2022-11-15T10:10:58;6.20;;;3.85;;
21272;SDS011;36726;52.328;10.552;2022-11-15T10:13:47;6.78;;;3.28;;
21272;SDS011;36726;52.328;10.552;2022-11-15T10:18:57;6.60;;;3.60;;
21272;SDS011;36726;52.328;10.552;2022-11-15T10:21:55;4.95;;;3.70;;
21272;SDS011;36726;52.328;10.552;2022-11-15T10:24:37;4.88;;;3.42;;
21272;SDS011;36726;52.328;10.552;2022-11-15T10:27:09;6.57;;;3.80;;
21272;SDS011;36726;52.328;10.552;2022-11-15T10:29:46;5.65;;;3.47;;
21272;SDS011;36726;52.328;10.552;2022-11-15T10:32:15;7.05;;;4.10;;
21272;SDS011;36726;52.328;10.552;2022-11-15T10:34:46;6.97;;;3.80;;
21272;SDS011;36726;52.328;10.552;2022-11-15T10:37:14;6.80;;;3.20;;
21272;SDS011;36726;52.328;10.552;2022-11-15T10:40:03;3.70;;;3.03;;
21272;SDS011;36726;52.328;10.552;2022-11-15T10:42:41;3.22;;;2.70;;
21272;SDS011;36726;52.328;10.552;2022-11-15T10:45:27;13.95;;;8.75;;
21272;SDS011;36726;52.328;10.552;2022-11-15T10:48:38;14.55;;;9.70;;
21272;SDS011;36726;52.328;10.552;2022-11-15T10:50:48;10.50;;;7.28;;
21272;SDS011;36726;52.328;10.552;2022-11-15T10:53:27;19.17;;;10.85;;
21272;SDS011;36726;52.328;10.552;2022-11-15T10:56:00;11.35;;;5.38;;
21272;SDS011;36726;52.328;10.552;2022-11-15T11:01:44;8.05;;;5.63;;
21272;SDS011;36726;52.328;10.552;2022-11-15T11:11:55;5.85;;;2.90;;
21272;SDS011;36726;52.328;10.552;2022-11-15T11:14:23;7.75;;;3.00;;
21272;SDS011;36726;52.328;10.552;2022-11-15T11:16:51;3.10;;;2.30;;
21272;SDS011;36726;52.328;10.552;2022-11-15T11:24:58;2.90;;;2.28;;
21272;SDS011;36726;52.328;10.552;2022-11-15T11:27:42;4.32;;;2.45;;
21272;SDS011;36726;52.328;10.552;2022-11-15T11:30:18;3.00;;;2.33;;
21272;SDS011;36726;52.328;10.552;2022-11-15T11:35:43;6.35;;;2.70;;
21272;SDS011;36726;52.328;10.552;2022-11-15T11:41:08;4.50;;;2.13;;
21272;SDS011;36726;52.328;10.552;2022-11-15T11:49:01;7.50;;;1.95;;
21272;SDS011;36726;52.328;10.552;2022-11-15T11:52:13;2.63;;;2.10;;
21272;SDS011;36726;52.328;10.552;2022-11-15T11:56:59;2.05;;;1.73;;
21272;SDS011;36726;52.328;10.552;2022-11-15T12:02:20;2.22;;;1.88;;
21272;SDS011;36726;52.328;10.552;2022-11-15T12:05:04;3.03;;;1.52;;
21272;SDS011;36726;52.328;10.552;2022-11-15T12:07:37;3.78;;;2.15;;
21272;SDS011;36726;52.328;10.552;2022-11-15T12:15:24;3.47;;;1.85;;
21272;SDS011;36726;52.328;10.552;2022-11-15T12:17:55;3.60;;;1.92;;
21272;SDS011;36726;52.328;10.552;2022-11-15T12:20:23;2.63;;;1.90;;
21272;SDS011;36726;52.328;10.552;2022-11-15T12:22:54;2.10;;;1.63;;
21272;SDS011;36726;52.328;10.552;2022-11-15T12:26:16;4.10;;;2.30;;
21272;SDS011;36726;52.328;10.552;2022-11-15T12:28:46;3.65;;;2.42;;
21272;SDS011;36726;52.328;10.552;2022-11-15T12:31:37;6.03;;;2.20;;
21272;SDS011;36726;52.328;10.552;2022-11-15T12:36:49;3.17;;;2.20;;
21272;SDS011;36726;52.328;10.552;2022-11-15T12:39:17;3.60;;;2.13;;
21272;SDS011;36726;52.328;10.552;2022-11-15T13:02:31;2.95;;;1.88;;
21272;SDS011;36726;52.328;10.552;2022-11-15T13:17:39;3.75;;;2.58;;
21272;SDS011;36726;52.328;10.552;2022-11-15T13:20:23;3.25;;;2.00;;
21272;SDS011;36726;52.328;10.552;2022-11-15T13:33:19;4.90;;;2.00;;
21272;SDS011;36726;52.328;10.552;2022-11-15T13:35:52;4.53;;;2.67;;
21272;SDS011;36726;52.328;10.552;2022-11-15T13:38:30;5.85;;;3.15;;
21272;SDS011;36726;52.328;10.552;2022-11-15T13:41:09;5.50;;;3.00;;
21272;SDS011;36726;52.328;10.552;2022-11-15T13:43:40;3.90;;;2.65;;
21272;SDS011;36726;52.328;10.552;2022-11-15T13:46:17;5.63;;;4.10;;
21272;SDS011;36726;52.328;10.552;2022-11-15T13:51:37;6.60;;;3.28;;
21272;SDS011;36726;52.328;10.552;2022-11-15T13:54:30;5.88;;;3.30;;
21272;SDS011;36726;52.328;10.552;2022-11-15T13:56:57;4.80;;;2.45;;
21272;SDS011;36726;52.328;10.552;2022-11-15T13:59:29;7.85;;;3.20;;
21272;SDS011;36726;52.328;10.552;2022-11-15T14:02:02;3.50;;;2.80;;
21272;SDS011;36726;52.328;10.552;2022-11-15T14:04:51;4.20;;;2.63;;
21272;SDS011;36726;52.328;10.552;2022-11-15T14:07:22;3.92;;;2.42;;
21272;SDS011;36726;52.328;10.552;2022-11-15T14:09:51;6.45;;;2.80;;
21272;SDS011;36726;52.328;10.552;2022-11-15T14:12:23;6.07;;;3.72;;
21272;SDS011;36726;52.328;10.552;2022-11-15T14:14:56;5.97;;;3.35;;
21272;SDS011;36726;52.328;10.552;2022-11-15T14:19:57;4.05;;;3.17;;
21272;SDS011;36726;52.328;10.552;2022-11-15T14:22:25;4.95;;;3.25;;
21272;SDS011;36726;52.328;10.552;2022-11-15T14:25:07;4.53;;;3.05;;
21272;SDS011;36726;52.328;10.552;2022-11-15T14:28:07;4.05;;;2.67;;
21272;SDS011;36726;52.328;10.552;2022-11-15T14:30:34;4.70;;;2.92;;
21272;SDS011;36726;52.328;10.552;2022-11-15T14:33:01;6.78;;;2.67;;
21272;SDS011;36726;52.328;10.552;2022-11-15T14:35:28;4.32;;;2.80;;
21272;SDS011;36726;52.328;10.552;2022-11-15T14:37:55;4.57;;;2.85;;
21272;SDS011;36726;52.328;10.552;2022-11-15T14:40:25;9.73;;;3.25;;
21272;SDS011;36726;52.328;10.552;2022-11-15T14:42:52;3.20;;;2.67;;
21272;SDS011;36726;52.328;10.552;2022-11-15T14:45:19;5.78;;;2.63;;
21272;SDS011;36726;52.328;10.552;2022-11-15T14:47:47;5.05;;;2.88;;
21272;SDS011;36726;52.328;10.552;2022-11-15T14:50:15;6.22;;;3.42;;
21272;SDS011;36726;52.328;10.552;2022-11-15T14:52:44;4.03;;;3.10;;
21272;SDS011;36726;52.328;10.552;2022-11-15T14:57:58;8.85;;;3.95;;
21272;SDS011;36726;52.328;10.552;2022-11-15T15:00:25;6.90;;;3.72;;
21272;SDS011;36726;52.328;10.552;2022-11-15T15:02:59;6.72;;;3.92;;
21272;SDS011;36726;52.328;10.552;2022-11-15T15:05:31;8.98;;;5.03;;
21272;SDS011;36726;52.328;10.552;2022-11-15T15:07:59;8.55;;;4.93;;
21272;SDS011;36726;52.328;10.552;2022-11-15T15:10:27;12.63;;;6.22;;
21272;SDS011;36726;52.328;10.552;2022-11-15T15:13:08;9.25;;;4.78;;
21272;SDS011;36726;52.328;10.552;2022-11-15T15:15:47;10.10;;;6.65;;
21272;SDS011;36726;52.328;10.552;2022-11-15T15:18:14;12.85;;;8.45;;
21272;SDS011;36726;52.328;10.552;2022-11-15T15:20:42;8.00;;;5.07;;
21272;SDS011;36726;52.328;10.552;2022-11-15T15:23:18;8.60;;;4.63;;
21272;SDS011;36726;52.328;10.552;2022-11-15T15:25:46;5.95;;;4.15;;
21272;SDS011;36726;52.328;10.552;2022-11-15T15:28:15;7.75;;;4.13;;
21272;SDS011;36726;52.328;10.552;2022-11-15T15:30:42;8.05;;;4.68;;
21272;SDS011;36726;52.328;10.552;2022-11-15T15:33:09;7.72;;;4.35;;
21272;SDS011;36726;52.328;10.552;2022-11-15T15:35:35;12.63;;;4.65;;
21272;SDS011;36726;52.328;10.552;2022-11-15T15:38:02;11.13;;;4.40;;
21272;SDS011;36726;52.328;10.552;2022-11-15T15:40:31;9.57;;;4.85;;
21272;SDS011;36726;52.328;10.552;2022-11-15T15:42:59;9.63;;;4.88;;
21272;SDS011;36726;52.328;10.552;2022-11-15T15:45:26;8.30;;;4.25;;
21272;SDS011;36726;52.328;10.552;2022-11-15T15:47:54;6.93;;;4.85;;
21272;SDS011;36726;52.328;10.552;2022-11-15T15:50:28;9.10;;;4.75;;
21272;SDS011;36726;52.328;10.552;2022-11-15T15:52:57;9.77;;;4.80;;
21272;SDS011;36726;52.328;10.552;2022-11-15T15:55:25;7.80;;;4.70;;
21272;SDS011;36726;52.328;10.552;2022-11-15T15:57:52;11.07;;;5.75;;
21272;SDS011;36726;52.328;10.552;2022-11-15T16:00:19;10.48;;;7.07;;
21272;SDS011;36726;52.328;10.552;2022-11-15T16:02:49;11.77;;;6.97;;
21272;SDS011;36726;52.328;10.552;2022-11-15T16:05:16;8.88;;;6.22;;
21272;SDS011;36726;52.328;10.552;2022-11-15T16:07:43;15.27;;;9.52;;
21272;SDS011;36726;52.328;10.552;2022-11-15T16:12:40;13.90;;;7.93;;
21272;SDS011;36726;52.328;10.552;2022-11-15T16:15:07;12.52;;;7.93;;
21272;SDS011;36726;52.328;10.552;2022-11-15T16:17:35;9.93;;;6.68;;
21272;SDS011;36726;52.328;10.552;2022-11-15T16:20:05;10.60;;;7.50;;
21272;SDS011;36726;52.328;10.552;2022-11-15T16:22:32;13.68;;;7.63;;
21272;SDS011;36726;52.328;10.552;2022-11-15T16:24:59;13.88;;;7.30;;
21272;SDS011;36726;52.328;10.552;2022-11-15T16:27:26;13.88;;;7.25;;
21272;SDS011;36726;52.328;10.552;2022-11-15T16:29:52;16.88;;;9.20;;
21272;SDS011;36726;52.328;10.552;2022-11-15T16:32:19;17.10;;;8.55;;
21272;SDS011;36726;52.328;10.552;2022-11-15T16:34:45;10.90;;;7.10;;
21272;SDS011;36726;52.328;10.552;2022-11-15T16:37:20;14.10;;;7.70;;
21272;SDS011;36726;52.328;10.552;2022-11-15T16:39:48;13.95;;;9.07;;
21272;SDS011;36726;52.328;10.552;2022-11-15T16:42:15;13.07;;;8.30;;
21272;SDS011;36726;52.328;10.552;2022-11-15T16:44:42;9.90;;;6.45;;
21272;SDS011;36726;52.328;10.552;2022-11-15T16:47:19;12.48;;;8.23;;
21272;SDS011;36726;52.328;10.552;2022-11-15T16:49:46;12.40;;;7.20;;
21272;SDS011;36726;52.328;10.552;2022-11-15T16:52:13;10.07;;;5.72;;
21272;SDS011;36726;52.328;10.552;2022-11-15T16:54:46;10.70;;;6.32;;
21272;SDS011;36726;52.328;10.552;2022-11-15T16:57:13;10.90;;;5.97;;
21272;SDS011;36726;52.328;10.552;2022-11-15T16:59:39;8.70;;;5.40;;
21272;SDS011;36726;52.328;10.552;2022-11-15T17:02:12;7.63;;;5.75;;
21272;SDS011;36726;52.328;10.552;2022-11-15T17:04:40;9.45;;;5.45;;
21272;SDS011;36726;52.328;10.552;2022-11-15T17:07:07;7.07;;;5.30;;
21272;SDS011;36726;52.328;10.552;2022-11-15T17:09:33;10.27;;;5.20;;
21272;SDS011;36726;52.328;10.552;2022-11-15T17:12:00;8.80;;;5.20;;
21272;SDS011;36726;52.328;10.552;2022-11-15T17:14:27;11.73;;;5.22;;
21272;SDS011;36726;52.328;10.552;2022-11-15T17:16:54;6.63;;;4.63;;
21272;SDS011;36726;52.328;10.552;2022-11-15T17:19:21;9.63;;;5.30;;
21272;SDS011;36726;52.328;10.552;2022-11-15T17:21:47;8.77;;;4.57;;
21272;SDS011;36726;52.328;10.552;2022-11-15T17:24:14;8.95;;;4.80;;
21272;SDS011;36726;52.328;10.552;2022-11-15T17:26:42;8.88;;;4.47;;
21272;SDS011;36726;52.328;10.552;2022-11-15T17:29:09;7.43;;;4.32;;
21272;SDS011;36726;52.328;10.552;2022-11-15T17:31:36;7.43;;;4.97;;
21272;SDS011;36726;52.328;10.552;2022-11-15T17:34:04;7.10;;;4.53;;
21272;SDS011;36726;52.328;10.552;2022-11-15T17:36:31;6.30;;;4.82;;
21272;SDS011;36726;52.328;10.552;2022-11-15T17:38:59;5.57;;;4.20;;
21272;SDS011;36726;52.328;10.552;2022-11-15T17:41:26;8.00;;;5.07;;
21272;SDS011;36726;52.328;10.552;2022-11-15T17:43:56;9.02;;;5.28;;
21272;SDS011;36726;52.328;10.552;2022-11-15T17:46:25;9.90;;;5.55;;
21272;SDS011;36726;52.328;10.552;2022-11-15T17:48:53;10.15;;;6.13;;
21272;SDS011;36726;52.328;10.552;2022-11-15T17:51:20;7.85;;;5.28;;
21272;SDS011;36726;52.328;10.552;2022-11-15T17:53:49;8.80;;;5.43;;
21272;SDS011;36726;52.328;10.552;2022-11-15T17:56:17;13.52;;;6.10;;
21272;SDS011;36726;52.328;10.552;2022-11-15T17:58:46;10.27;;;6.28;;
21272;SDS011;36726;52.328;10.552;2022-11-15T18:01:18;9.70;;;6.03;;
21272;SDS011;36726;52.328;10.552;2022-11-15T18:03:50;9.23;;;5.60;;
21272;SDS011;36726;52.328;10.552;2022-11-15T18:06:17;10.98;;;6.25;;